sensor_id;sensor_type;location;lat;lon;timestamp;P1;durP1;ratioP1;P2;durP2;ratioP2
73593;SDS011;64760;53.404;23.498;2023-10-09T00:01:05;0.95;;;0.60;;
73593;SDS011;64760;53.404;23.498;2023-10-09T00:03:47;0.77;;;0.40;;
73593;SDS011;64760;53.404;23.498;2023-10-09T00:06:23;2.65;;;0.77;;
73593;SDS011;64760;53.404;23.498;2023-10-09T00:08:57;1.80;;;0.88;;
73593;SDS011;64760;53.404;23.498;2023-10-09T00:11:23;2.88;;;0.60;;
73593;SDS011;64760;53.404;23.498;2023-10-09T00:13:56;0.30;;;0.30;;
73593;SDS011;64760;53.404;23.498;2023-10-09T00:16:26;1.20;;;0.65;;
73593;SDS011;64760;53.404;23.498;2023-10-09T00:19:06;1.58;;;0.55;;
73593;SDS011;64760;53.404;23.498;2023-10-09T00:21:59;1.70;;;1.08;;
73593;SDS011;64760;53.404;23.498;2023-10-09T00:24:37;2.55;;;0.77;;
73593;SDS011;64760;53.404;23.498;2023-10-09T00:27:11;1.85;;;0.85;;
73593;SDS011;64760;53.404;23.498;2023-10-09T00:29:39;1.83;;;0.65;;
73593;SDS011;64760;53.404;23.498;2023-10-09T00:32:12;2.85;;;0.82;;
73593;SDS011;64760;53.404;23.498;2023-10-09T00:34:59;1.20;;;0.70;;
73593;SDS011;64760;53.404;23.498;2023-10-09T00:37:46;3.40;;;1.48;;
73593;SDS011;64760;53.404;23.498;2023-10-09T00:40:13;4.53;;;0.88;;
73593;SDS011;64760;53.404;23.498;2023-10-09T00:42:46;1.85;;;0.90;;
73593;SDS011;64760;53.404;23.498;2023-10-09T00:45:13;3.03;;;0.63;;
73593;SDS011;64760;53.404;23.498;2023-10-09T00:47:58;3.05;;;1.13;;
73593;SDS011;64760;53.404;23.498;2023-10-09T00:50:28;2.38;;;1.20;;
73593;SDS011;64760;53.404;23.498;2023-10-09T00:53:01;2.30;;;1.20;;
73593;SDS011;64760;53.404;23.498;2023-10-09T00:55:35;3.20;;;1.27;;
73593;SDS011;64760;53.404;23.498;2023-10-09T00:58:14;4.40;;;1.02;;
73593;SDS011;64760;53.404;23.498;2023-10-09T01:03:25;2.13;;;1.10;;
73593;SDS011;64760;53.404;23.498;2023-10-09T01:05:59;6.53;;;1.40;;
73593;SDS011;64760;53.404;23.498;2023-10-09T01:08:37;3.00;;;1.13;;
73593;SDS011;64760;53.404;23.498;2023-10-09T01:11:06;0.52;;;0.40;;
73593;SDS011;64760;53.404;23.498;2023-10-09T01:13:41;2.95;;;0.60;;
73593;SDS011;64760;53.404;23.498;2023-10-09T01:16:14;3.97;;;1.13;;
73593;SDS011;64760;53.404;23.498;2023-10-09T01:18:44;2.22;;;0.85;;
73593;SDS011;64760;53.404;23.498;2023-10-09T01:21:15;2.08;;;0.80;;
73593;SDS011;64760;53.404;23.498;2023-10-09T01:23:46;1.13;;;0.55;;
73593;SDS011;64760;53.404;23.498;2023-10-09T01:26:25;3.00;;;1.08;;
73593;SDS011;64760;53.404;23.498;2023-10-09T01:28:51;3.00;;;1.35;;
73593;SDS011;64760;53.404;23.498;2023-10-09T01:31:24;2.20;;;0.80;;
73593;SDS011;64760;53.404;23.498;2023-10-09T01:33:52;3.67;;;0.75;;
73593;SDS011;64760;53.404;23.498;2023-10-09T01:39:00;1.98;;;0.65;;
73593;SDS011;64760;53.404;23.498;2023-10-09T01:41:45;0.93;;;0.65;;
73593;SDS011;64760;53.404;23.498;2023-10-09T01:44:12;1.55;;;0.75;;
73593;SDS011;64760;53.404;23.498;2023-10-09T01:46:38;2.00;;;1.08;;
73593;SDS011;64760;53.404;23.498;2023-10-09T01:49:04;1.20;;;0.55;;
73593;SDS011;64760;53.404;23.498;2023-10-09T01:51:42;8.68;;;1.65;;
73593;SDS011;64760;53.404;23.498;2023-10-09T01:54:09;2.83;;;1.38;;
73593;SDS011;64760;53.404;23.498;2023-10-09T01:56:42;1.23;;;0.70;;
73593;SDS011;64760;53.404;23.498;2023-10-09T01:59:12;1.88;;;0.90;;
73593;SDS011;64760;53.404;23.498;2023-10-09T02:01:38;3.35;;;1.15;;
73593;SDS011;64760;53.404;23.498;2023-10-09T02:04:08;1.77;;;0.70;;
73593;SDS011;64760;53.404;23.498;2023-10-09T02:06:39;3.00;;;1.35;;
73593;SDS011;64760;53.404;23.498;2023-10-09T02:09:06;1.73;;;0.85;;
73593;SDS011;64760;53.404;23.498;2023-10-09T02:11:33;3.65;;;1.55;;
73593;SDS011;64760;53.404;23.498;2023-10-09T02:14:04;4.72;;;1.48;;
73593;SDS011;64760;53.404;23.498;2023-10-09T02:16:47;2.95;;;1.10;;
73593;SDS011;64760;53.404;23.498;2023-10-09T02:19:29;1.98;;;0.90;;
73593;SDS011;64760;53.404;23.498;2023-10-09T02:22:07;3.95;;;1.02;;
73593;SDS011;64760;53.404;23.498;2023-10-09T02:24:40;2.20;;;1.15;;
73593;SDS011;64760;53.404;23.498;2023-10-09T02:27:25;4.65;;;1.60;;
73593;SDS011;64760;53.404;23.498;2023-10-09T02:30:27;4.28;;;1.77;;
73593;SDS011;64760;53.404;23.498;2023-10-09T02:32:55;2.38;;;1.10;;
73593;SDS011;64760;53.404;23.498;2023-10-09T02:35:32;3.50;;;1.17;;
73593;SDS011;64760;53.404;23.498;2023-10-09T02:38:08;4.38;;;1.38;;
73593;SDS011;64760;53.404;23.498;2023-10-09T02:40:40;4.75;;;1.70;;
73593;SDS011;64760;53.404;23.498;2023-10-09T02:43:42;3.03;;;1.35;;
73593;SDS011;64760;53.404;23.498;2023-10-09T02:46:12;3.13;;;1.00;;
73593;SDS011;64760;53.404;23.498;2023-10-09T02:51:23;1.52;;;0.77;;
73593;SDS011;64760;53.404;23.498;2023-10-09T02:53:54;2.67;;;1.13;;
73593;SDS011;64760;53.404;23.498;2023-10-09T02:56:23;1.92;;;1.00;;
73593;SDS011;64760;53.404;23.498;2023-10-09T02:58:51;3.78;;;1.27;;
73593;SDS011;64760;53.404;23.498;2023-10-09T03:01:17;25.45;;;10.57;;
73593;SDS011;64760;53.404;23.498;2023-10-09T03:03:43;12.60;;;5.47;;
73593;SDS011;64760;53.404;23.498;2023-10-09T03:06:11;12.75;;;5.65;;
73593;SDS011;64760;53.404;23.498;2023-10-09T03:08:45;7.25;;;4.10;;
73593;SDS011;64760;53.404;23.498;2023-10-09T03:11:13;12.27;;;6.63;;
73593;SDS011;64760;53.404;23.498;2023-10-09T03:13:42;12.15;;;7.45;;
73593;SDS011;64760;53.404;23.498;2023-10-09T03:16:13;7.00;;;4.53;;
73593;SDS011;64760;53.404;23.498;2023-10-09T03:18:46;5.43;;;2.92;;
73593;SDS011;64760;53.404;23.498;2023-10-09T03:21:15;4.95;;;2.63;;
73593;SDS011;64760;53.404;23.498;2023-10-09T03:23:46;18.13;;;6.00;;
73593;SDS011;64760;53.404;23.498;2023-10-09T03:26:16;13.40;;;8.50;;
73593;SDS011;64760;53.404;23.498;2023-10-09T03:28:46;11.88;;;6.00;;
73593;SDS011;64760;53.404;23.498;2023-10-09T03:31:13;11.82;;;7.55;;
73593;SDS011;64760;53.404;23.498;2023-10-09T03:33:40;6.03;;;3.05;;
73593;SDS011;64760;53.404;23.498;2023-10-09T03:36:07;10.27;;;5.25;;
73593;SDS011;64760;53.404;23.498;2023-10-09T03:38:36;4.93;;;2.50;;
73593;SDS011;64760;53.404;23.498;2023-10-09T03:41:04;5.93;;;3.65;;
73593;SDS011;64760;53.404;23.498;2023-10-09T03:43:35;4.72;;;2.15;;
73593;SDS011;64760;53.404;23.498;2023-10-09T03:46:09;4.57;;;2.47;;
73593;SDS011;64760;53.404;23.498;2023-10-09T03:48:52;4.35;;;2.00;;
73593;SDS011;64760;53.404;23.498;2023-10-09T03:51:21;5.93;;;2.80;;
73593;SDS011;64760;53.404;23.498;2023-10-09T03:53:48;9.57;;;3.65;;
73593;SDS011;64760;53.404;23.498;2023-10-09T03:56:15;9.18;;;3.70;;
73593;SDS011;64760;53.404;23.498;2023-10-09T03:58:43;9.10;;;3.65;;
73593;SDS011;64760;53.404;23.498;2023-10-09T04:01:20;6.38;;;2.83;;
73593;SDS011;64760;53.404;23.498;2023-10-09T04:03:57;5.43;;;2.00;;
73593;SDS011;64760;53.404;23.498;2023-10-09T04:06:30;4.82;;;1.30;;
73593;SDS011;64760;53.404;23.498;2023-10-09T04:08:58;5.50;;;1.75;;
73593;SDS011;64760;53.404;23.498;2023-10-09T04:11:49;2.20;;;1.50;;
73593;SDS011;64760;53.404;23.498;2023-10-09T04:14:38;3.20;;;1.45;;
73593;SDS011;64760;53.404;23.498;2023-10-09T04:17:15;3.10;;;1.45;;
73593;SDS011;64760;53.404;23.498;2023-10-09T04:19:48;4.05;;;2.08;;
73593;SDS011;64760;53.404;23.498;2023-10-09T04:22:35;1.58;;;0.85;;
73593;SDS011;64760;53.404;23.498;2023-10-09T04:25:07;3.13;;;1.30;;
73593;SDS011;64760;53.404;23.498;2023-10-09T04:27:40;4.65;;;1.60;;
73593;SDS011;64760;53.404;23.498;2023-10-09T04:30:07;4.97;;;2.10;;
73593;SDS011;64760;53.404;23.498;2023-10-09T04:32:43;13.38;;;6.15;;
73593;SDS011;64760;53.404;23.498;2023-10-09T04:35:11;11.68;;;6.10;;
73593;SDS011;64760;53.404;23.498;2023-10-09T04:37:55;3.88;;;2.40;;
73593;SDS011;64760;53.404;23.498;2023-10-09T04:40:32;9.15;;;5.25;;
73593;SDS011;64760;53.404;23.498;2023-10-09T04:43:14;6.38;;;2.85;;
73593;SDS011;64760;53.404;23.498;2023-10-09T04:45:49;10.30;;;4.38;;
73593;SDS011;64760;53.404;23.498;2023-10-09T04:48:38;7.40;;;3.40;;
73593;SDS011;64760;53.404;23.498;2023-10-09T04:51:06;13.48;;;7.15;;
73593;SDS011;64760;53.404;23.498;2023-10-09T04:53:47;9.07;;;4.28;;
73593;SDS011;64760;53.404;23.498;2023-10-09T04:56:26;12.52;;;5.68;;
73593;SDS011;64760;53.404;23.498;2023-10-09T04:58:57;18.58;;;6.75;;
73593;SDS011;64760;53.404;23.498;2023-10-09T05:01:30;14.65;;;5.25;;
73593;SDS011;64760;53.404;23.498;2023-10-09T05:04:03;27.88;;;7.85;;
73593;SDS011;64760;53.404;23.498;2023-10-09T05:06:50;9.65;;;4.10;;
73593;SDS011;64760;53.404;23.498;2023-10-09T05:09:21;12.48;;;4.55;;
73593;SDS011;64760;53.404;23.498;2023-10-09T05:11:49;14.68;;;6.18;;
73593;SDS011;64760;53.404;23.498;2023-10-09T05:14:16;15.82;;;4.47;;
73593;SDS011;64760;53.404;23.498;2023-10-09T05:16:43;5.25;;;2.85;;
73593;SDS011;64760;53.404;23.498;2023-10-09T05:19:30;9.25;;;4.45;;
73593;SDS011;64760;53.404;23.498;2023-10-09T05:22:09;9.63;;;4.47;;
73593;SDS011;64760;53.404;23.498;2023-10-09T05:24:58;9.55;;;3.70;;
73593;SDS011;64760;53.404;23.498;2023-10-09T05:27:27;6.97;;;3.22;;
73593;SDS011;64760;53.404;23.498;2023-10-09T05:30:16;7.68;;;2.45;;
73593;SDS011;64760;53.404;23.498;2023-10-09T05:32:53;11.00;;;3.42;;
73593;SDS011;64760;53.404;23.498;2023-10-09T05:35:49;5.43;;;2.35;;
73593;SDS011;64760;53.404;23.498;2023-10-09T05:38:43;5.32;;;2.97;;
73593;SDS011;64760;53.404;23.498;2023-10-09T05:41:27;6.30;;;2.03;;
73593;SDS011;64760;53.404;23.498;2023-10-09T05:44:11;4.15;;;1.85;;
73593;SDS011;64760;53.404;23.498;2023-10-09T05:46:56;5.32;;;2.65;;
73593;SDS011;64760;53.404;23.498;2023-10-09T05:49:42;4.32;;;1.88;;
73593;SDS011;64760;53.404;23.498;2023-10-09T05:52:26;9.55;;;3.45;;
73593;SDS011;64760;53.404;23.498;2023-10-09T05:55:19;11.20;;;3.70;;
73593;SDS011;64760;53.404;23.498;2023-10-09T05:57:50;10.20;;;3.47;;
73593;SDS011;64760;53.404;23.498;2023-10-09T06:00:23;8.20;;;3.13;;
73593;SDS011;64760;53.404;23.498;2023-10-09T06:03:10;4.22;;;2.13;;
73593;SDS011;64760;53.404;23.498;2023-10-09T06:05:47;3.03;;;1.67;;
73593;SDS011;64760;53.404;23.498;2023-10-09T06:08:24;7.57;;;1.63;;
73593;SDS011;64760;53.404;23.498;2023-10-09T06:11:14;4.40;;;1.48;;
73593;SDS011;64760;53.404;23.498;2023-10-09T06:14:00;6.25;;;2.55;;
73593;SDS011;64760;53.404;23.498;2023-10-09T06:16:31;4.70;;;1.98;;
73593;SDS011;64760;53.404;23.498;2023-10-09T06:29:40;16.50;;;3.00;;
73593;SDS011;64760;53.404;23.498;2023-10-09T06:32:12;4.47;;;2.13;;
73593;SDS011;64760;53.404;23.498;2023-10-09T06:37:12;1.92;;;0.98;;
73593;SDS011;64760;53.404;23.498;2023-10-09T06:40:02;3.90;;;1.92;;
73593;SDS011;64760;53.404;23.498;2023-10-09T06:42:57;4.22;;;1.83;;
73593;SDS011;64760;53.404;23.498;2023-10-09T06:45:24;9.20;;;3.15;;
73593;SDS011;64760;53.404;23.498;2023-10-09T06:48:10;11.63;;;3.33;;
73593;SDS011;64760;53.404;23.498;2023-10-09T06:51:02;5.95;;;2.83;;
73593;SDS011;64760;53.404;23.498;2023-10-09T06:53:42;7.03;;;2.90;;
73593;SDS011;64760;53.404;23.498;2023-10-09T06:56:21;6.25;;;2.10;;
73593;SDS011;64760;53.404;23.498;2023-10-09T06:58:58;4.40;;;1.92;;
73593;SDS011;64760;53.404;23.498;2023-10-09T07:01:30;5.60;;;2.33;;
73593;SDS011;64760;53.404;23.498;2023-10-09T07:04:05;6.35;;;2.58;;
73593;SDS011;64760;53.404;23.498;2023-10-09T07:06:45;5.82;;;2.75;;
73593;SDS011;64760;53.404;23.498;2023-10-09T07:09:12;6.00;;;3.13;;
73593;SDS011;64760;53.404;23.498;2023-10-09T07:11:44;6.80;;;3.17;;
73593;SDS011;64760;53.404;23.498;2023-10-09T07:14:20;5.05;;;2.40;;
73593;SDS011;64760;53.404;23.498;2023-10-09T07:17:07;5.47;;;1.88;;
73593;SDS011;64760;53.404;23.498;2023-10-09T07:20:13;4.97;;;2.60;;
73593;SDS011;64760;53.404;23.498;2023-10-09T07:22:40;4.30;;;1.95;;
73593;SDS011;64760;53.404;23.498;2023-10-09T07:25:19;4.00;;;1.65;;
73593;SDS011;64760;53.404;23.498;2023-10-09T07:33:12;4.15;;;2.10;;
73593;SDS011;64760;53.404;23.498;2023-10-09T07:35:44;3.72;;;1.80;;
73593;SDS011;64760;53.404;23.498;2023-10-09T07:38:14;3.80;;;1.55;;
73593;SDS011;64760;53.404;23.498;2023-10-09T07:40:45;7.80;;;3.35;;
73593;SDS011;64760;53.404;23.498;2023-10-09T07:43:45;5.15;;;2.38;;
73593;SDS011;64760;53.404;23.498;2023-10-09T07:46:13;7.95;;;3.65;;
73593;SDS011;64760;53.404;23.498;2023-10-09T07:49:00;9.68;;;3.28;;
73593;SDS011;64760;53.404;23.498;2023-10-09T07:51:38;5.50;;;3.00;;
73593;SDS011;64760;53.404;23.498;2023-10-09T07:54:10;6.80;;;2.83;;
73593;SDS011;64760;53.404;23.498;2023-10-09T07:56:41;5.55;;;2.00;;
73593;SDS011;64760;53.404;23.498;2023-10-09T07:59:11;3.63;;;1.92;;
73593;SDS011;64760;53.404;23.498;2023-10-09T08:01:57;5.53;;;2.00;;
73593;SDS011;64760;53.404;23.498;2023-10-09T08:04:29;6.40;;;3.97;;
73593;SDS011;64760;53.404;23.498;2023-10-09T08:07:06;6.47;;;2.38;;
73593;SDS011;64760;53.404;23.498;2023-10-09T08:09:45;8.25;;;3.70;;
73593;SDS011;64760;53.404;23.498;2023-10-09T08:12:13;6.03;;;2.60;;
73593;SDS011;64760;53.404;23.498;2023-10-09T08:14:41;4.05;;;2.15;;
73593;SDS011;64760;53.404;23.498;2023-10-09T08:17:08;4.72;;;1.33;;
73593;SDS011;64760;53.404;23.498;2023-10-09T08:19:43;4.07;;;1.90;;
73593;SDS011;64760;53.404;23.498;2023-10-09T08:22:24;4.53;;;2.22;;
73593;SDS011;64760;53.404;23.498;2023-10-09T08:24:53;6.53;;;3.17;;
73593;SDS011;64760;53.404;23.498;2023-10-09T08:27:25;7.60;;;4.50;;
73593;SDS011;64760;53.404;23.498;2023-10-09T08:29:59;7.25;;;3.15;;
73593;SDS011;64760;53.404;23.498;2023-10-09T08:32:48;2.60;;;1.35;;
73593;SDS011;64760;53.404;23.498;2023-10-09T08:35:47;5.30;;;2.05;;
73593;SDS011;64760;53.404;23.498;2023-10-09T08:38:15;4.15;;;2.30;;
73593;SDS011;64760;53.404;23.498;2023-10-09T08:40:49;4.45;;;1.40;;
73593;SDS011;64760;53.404;23.498;2023-10-09T08:43:23;10.20;;;4.72;;
73593;SDS011;64760;53.404;23.498;2023-10-09T08:45:54;7.10;;;3.10;;
73593;SDS011;64760;53.404;23.498;2023-10-09T08:48:27;8.20;;;3.63;;
73593;SDS011;64760;53.404;23.498;2023-10-09T08:50:55;9.95;;;3.97;;
73593;SDS011;64760;53.404;23.498;2023-10-09T08:53:27;5.38;;;2.55;;
73593;SDS011;64760;53.404;23.498;2023-10-09T08:55:54;2.95;;;1.60;;
73593;SDS011;64760;53.404;23.498;2023-10-09T09:02:20;11.77;;;7.40;;
73593;SDS011;64760;53.404;23.498;2023-10-09T09:08:42;6.68;;;3.47;;
73593;SDS011;64760;53.404;23.498;2023-10-09T09:11:05;4.10;;;1.85;;
73593;SDS011;64760;53.404;23.498;2023-10-09T09:13:40;3.20;;;1.27;;
73593;SDS011;64760;53.404;23.498;2023-10-09T09:16:20;4.97;;;2.38;;
73593;SDS011;64760;53.404;23.498;2023-10-09T09:19:09;5.82;;;1.92;;
73593;SDS011;64760;53.404;23.498;2023-10-09T09:21:41;4.68;;;2.40;;
73593;SDS011;64760;53.404;23.498;2023-10-09T09:24:11;3.70;;;1.83;;
73593;SDS011;64760;53.404;23.498;2023-10-09T09:26:54;5.60;;;2.55;;
73593;SDS011;64760;53.404;23.498;2023-10-09T09:29:57;5.43;;;3.13;;
73593;SDS011;64760;53.404;23.498;2023-10-09T09:32:33;3.70;;;1.52;;
73593;SDS011;64760;53.404;23.498;2023-10-09T09:35:03;2.90;;;1.48;;
73593;SDS011;64760;53.404;23.498;2023-10-09T09:37:33;4.03;;;1.63;;
73593;SDS011;64760;53.404;23.498;2023-10-09T09:40:09;3.88;;;2.20;;
73593;SDS011;64760;53.404;23.498;2023-10-09T09:42:57;2.53;;;1.20;;
73593;SDS011;64760;53.404;23.498;2023-10-09T09:45:32;4.78;;;1.98;;
73593;SDS011;64760;53.404;23.498;2023-10-09T09:48:02;4.00;;;2.00;;
73593;SDS011;64760;53.404;23.498;2023-10-09T09:50:32;3.90;;;2.35;;
73593;SDS011;64760;53.404;23.498;2023-10-09T09:52:59;6.57;;;3.05;;
73593;SDS011;64760;53.404;23.498;2023-10-09T09:55:29;4.57;;;1.63;;
73593;SDS011;64760;53.404;23.498;2023-10-09T09:58:03;3.67;;;1.70;;
73593;SDS011;64760;53.404;23.498;2023-10-09T10:00:33;4.18;;;2.25;;
73593;SDS011;64760;53.404;23.498;2023-10-09T10:03:12;6.55;;;2.30;;
73593;SDS011;64760;53.404;23.498;2023-10-09T10:05:45;8.30;;;3.78;;
73593;SDS011;64760;53.404;23.498;2023-10-09T10:08:20;4.30;;;1.73;;
73593;SDS011;64760;53.404;23.498;2023-10-09T10:10:48;2.15;;;1.20;;
73593;SDS011;64760;53.404;23.498;2023-10-09T10:16:13;2.85;;;1.38;;
73593;SDS011;64760;53.404;23.498;2023-10-09T10:18:54;3.20;;;1.00;;
73593;SDS011;64760;53.404;23.498;2023-10-09T10:21:33;3.25;;;1.45;;
73593;SDS011;64760;53.404;23.498;2023-10-09T10:24:00;3.60;;;1.65;;
73593;SDS011;64760;53.404;23.498;2023-10-09T10:26:36;3.75;;;1.08;;
73593;SDS011;64760;53.404;23.498;2023-10-09T10:29:15;1.80;;;1.02;;
73593;SDS011;64760;53.404;23.498;2023-10-09T10:31:53;2.17;;;0.88;;
73593;SDS011;64760;53.404;23.498;2023-10-09T10:34:51;3.65;;;1.52;;
73593;SDS011;64760;53.404;23.498;2023-10-09T10:37:13;2.47;;;1.00;;
73593;SDS011;64760;53.404;23.498;2023-10-09T10:39:52;3.17;;;1.33;;
73593;SDS011;64760;53.404;23.498;2023-10-09T10:42:25;3.83;;;1.23;;
73593;SDS011;64760;53.404;23.498;2023-10-09T10:45:01;1.92;;;0.85;;
73593;SDS011;64760;53.404;23.498;2023-10-09T10:47:28;1.05;;;0.95;;
73593;SDS011;64760;53.404;23.498;2023-10-09T10:50:03;2.65;;;1.10;;
73593;SDS011;64760;53.404;23.498;2023-10-09T10:52:48;2.05;;;0.68;;
73593;SDS011;64760;53.404;23.498;2023-10-09T10:55:30;2.60;;;0.93;;
73593;SDS011;64760;53.404;23.498;2023-10-09T10:57:59;4.03;;;1.63;;
73593;SDS011;64760;53.404;23.498;2023-10-09T11:00:36;2.95;;;1.23;;
73593;SDS011;64760;53.404;23.498;2023-10-09T11:03:25;2.90;;;1.00;;
73593;SDS011;64760;53.404;23.498;2023-10-09T11:06:04;1.02;;;0.60;;
73593;SDS011;64760;53.404;23.498;2023-10-09T11:08:46;1.67;;;0.70;;
73593;SDS011;64760;53.404;23.498;2023-10-09T11:11:37;4.00;;;0.80;;
73593;SDS011;64760;53.404;23.498;2023-10-09T11:14:13;3.70;;;1.05;;
73593;SDS011;64760;53.404;23.498;2023-10-09T11:16:50;3.42;;;1.23;;
73593;SDS011;64760;53.404;23.498;2023-10-09T11:19:21;2.13;;;0.88;;
73593;SDS011;64760;53.404;23.498;2023-10-09T11:21:55;6.25;;;1.70;;
73593;SDS011;64760;53.404;23.498;2023-10-09T11:24:46;4.53;;;2.00;;
73593;SDS011;64760;53.404;23.498;2023-10-09T11:27:27;6.10;;;1.83;;
73593;SDS011;64760;53.404;23.498;2023-10-09T11:29:58;1.60;;;0.88;;
73593;SDS011;64760;53.404;23.498;2023-10-09T11:32:44;5.65;;;1.85;;
73593;SDS011;64760;53.404;23.498;2023-10-09T11:35:14;3.42;;;1.52;;
73593;SDS011;64760;53.404;23.498;2023-10-09T11:37:54;3.30;;;1.02;;
73593;SDS011;64760;53.404;23.498;2023-10-09T11:40:29;1.92;;;0.80;;
73593;SDS011;64760;53.404;23.498;2023-10-09T11:43:51;3.78;;;1.40;;
73593;SDS011;64760;53.404;23.498;2023-10-09T11:46:21;5.80;;;2.70;;
73593;SDS011;64760;53.404;23.498;2023-10-09T11:49:17;1.42;;;0.63;;
73593;SDS011;64760;53.404;23.498;2023-10-09T11:51:53;1.90;;;0.98;;
73593;SDS011;64760;53.404;23.498;2023-10-09T11:54:41;4.82;;;1.50;;
73593;SDS011;64760;53.404;23.498;2023-10-09T11:57:14;8.52;;;2.22;;
73593;SDS011;64760;53.404;23.498;2023-10-09T11:59:42;3.58;;;1.52;;
73593;SDS011;64760;53.404;23.498;2023-10-09T12:02:12;7.30;;;3.35;;
73593;SDS011;64760;53.404;23.498;2023-10-09T12:04:39;5.70;;;2.28;;
73593;SDS011;64760;53.404;23.498;2023-10-09T12:10:16;4.55;;;1.70;;
73593;SDS011;64760;53.404;23.498;2023-10-09T12:12:54;2.08;;;1.10;;
73593;SDS011;64760;53.404;23.498;2023-10-09T12:15:24;2.17;;;1.27;;
73593;SDS011;64760;53.404;23.498;2023-10-09T12:17:52;3.97;;;2.03;;
73593;SDS011;64760;53.404;23.498;2023-10-09T12:20:22;6.75;;;1.60;;
73593;SDS011;64760;53.404;23.498;2023-10-09T12:23:25;5.97;;;2.22;;
73593;SDS011;64760;53.404;23.498;2023-10-09T12:26:03;2.92;;;1.90;;
73593;SDS011;64760;53.404;23.498;2023-10-09T12:28:34;3.97;;;1.83;;
73593;SDS011;64760;53.404;23.498;2023-10-09T12:31:32;5.00;;;1.70;;
73593;SDS011;64760;53.404;23.498;2023-10-09T12:34:00;4.20;;;1.17;;
73593;SDS011;64760;53.404;23.498;2023-10-09T12:36:32;3.08;;;1.15;;
73593;SDS011;64760;53.404;23.498;2023-10-09T12:39:14;2.88;;;1.60;;
73593;SDS011;64760;53.404;23.498;2023-10-09T12:41:48;4.53;;;1.88;;
73593;SDS011;64760;53.404;23.498;2023-10-09T12:44:20;4.60;;;2.00;;
73593;SDS011;64760;53.404;23.498;2023-10-09T12:47:02;2.60;;;1.45;;
73593;SDS011;64760;53.404;23.498;2023-10-09T12:49:30;2.35;;;1.30;;
73593;SDS011;64760;53.404;23.498;2023-10-09T12:51:57;4.97;;;1.92;;
73593;SDS011;64760;53.404;23.498;2023-10-09T12:54:26;4.40;;;2.13;;
73593;SDS011;64760;53.404;23.498;2023-10-09T12:56:54;4.93;;;2.28;;
73593;SDS011;64760;53.404;23.498;2023-10-09T12:59:21;2.55;;;1.27;;
73593;SDS011;64760;53.404;23.498;2023-10-09T13:01:50;2.40;;;0.90;;
73593;SDS011;64760;53.404;23.498;2023-10-09T13:04:24;2.63;;;0.90;;
73593;SDS011;64760;53.404;23.498;2023-10-09T13:06:57;2.05;;;0.93;;
73593;SDS011;64760;53.404;23.498;2023-10-09T13:09:28;1.45;;;0.98;;
73593;SDS011;64760;53.404;23.498;2023-10-09T13:12:02;1.70;;;0.90;;
73593;SDS011;64760;53.404;23.498;2023-10-09T13:14:31;2.20;;;0.88;;
73593;SDS011;64760;53.404;23.498;2023-10-09T13:16:59;2.45;;;1.35;;
73593;SDS011;64760;53.404;23.498;2023-10-09T13:19:26;1.20;;;0.82;;
73593;SDS011;64760;53.404;23.498;2023-10-09T13:21:52;3.80;;;1.58;;
73593;SDS011;64760;53.404;23.498;2023-10-09T13:24:19;8.98;;;2.80;;
73593;SDS011;64760;53.404;23.498;2023-10-09T13:26:50;6.68;;;3.00;;
73593;SDS011;64760;53.404;23.498;2023-10-09T13:29:24;4.93;;;2.00;;
73593;SDS011;64760;53.404;23.498;2023-10-09T13:31:50;3.70;;;1.67;;
73593;SDS011;64760;53.404;23.498;2023-10-09T13:34:23;6.55;;;2.97;;
73593;SDS011;64760;53.404;23.498;2023-10-09T13:36:54;6.40;;;1.90;;
73593;SDS011;64760;53.404;23.498;2023-10-09T13:39:22;4.28;;;2.15;;
73593;SDS011;64760;53.404;23.498;2023-10-09T13:41:55;5.72;;;3.15;;
73593;SDS011;64760;53.404;23.498;2023-10-09T13:44:33;6.68;;;2.00;;
73593;SDS011;64760;53.404;23.498;2023-10-09T13:47:00;5.60;;;1.83;;
73593;SDS011;64760;53.404;23.498;2023-10-09T13:49:32;4.65;;;1.77;;
73593;SDS011;64760;53.404;23.498;2023-10-09T13:54:30;10.30;;;4.70;;
73593;SDS011;64760;53.404;23.498;2023-10-09T13:56:59;8.38;;;3.30;;
73593;SDS011;64760;53.404;23.498;2023-10-09T13:59:30;6.10;;;3.03;;
73593;SDS011;64760;53.404;23.498;2023-10-09T14:01:56;5.53;;;3.15;;
73593;SDS011;64760;53.404;23.498;2023-10-09T14:04:25;4.78;;;1.92;;
73593;SDS011;64760;53.404;23.498;2023-10-09T14:06:54;5.00;;;1.98;;
73593;SDS011;64760;53.404;23.498;2023-10-09T14:09:26;7.88;;;4.13;;
73593;SDS011;64760;53.404;23.498;2023-10-09T14:12:11;3.55;;;2.03;;
73593;SDS011;64760;53.404;23.498;2023-10-09T14:14:41;7.35;;;3.30;;
73593;SDS011;64760;53.404;23.498;2023-10-09T14:17:18;9.00;;;3.63;;
73593;SDS011;64760;53.404;23.498;2023-10-09T14:19:51;8.77;;;2.72;;
73593;SDS011;64760;53.404;23.498;2023-10-09T14:25:13;5.05;;;1.73;;
73593;SDS011;64760;53.404;23.498;2023-10-09T14:27:46;14.80;;;6.47;;
73593;SDS011;64760;53.404;23.498;2023-10-09T14:30:14;11.38;;;5.97;;
73593;SDS011;64760;53.404;23.498;2023-10-09T14:35:51;14.20;;;5.88;;
73593;SDS011;64760;53.404;23.498;2023-10-09T14:38:18;6.78;;;3.20;;
73593;SDS011;64760;53.404;23.498;2023-10-09T14:43:59;10.57;;;5.15;;
73593;SDS011;64760;53.404;23.498;2023-10-09T14:46:27;7.22;;;4.70;;
73593;SDS011;64760;53.404;23.498;2023-10-09T14:48:57;12.20;;;6.55;;
73593;SDS011;64760;53.404;23.498;2023-10-09T14:51:24;13.55;;;5.95;;
73593;SDS011;64760;53.404;23.498;2023-10-09T14:54:02;19.40;;;8.77;;
73593;SDS011;64760;53.404;23.498;2023-10-09T14:56:28;20.73;;;10.30;;
73593;SDS011;64760;53.404;23.498;2023-10-09T14:58:56;9.30;;;5.57;;
73593;SDS011;64760;53.404;23.498;2023-10-09T15:01:30;16.27;;;6.72;;
73593;SDS011;64760;53.404;23.498;2023-10-09T15:03:57;10.65;;;6.10;;
73593;SDS011;64760;53.404;23.498;2023-10-09T15:06:26;17.83;;;7.40;;
73593;SDS011;64760;53.404;23.498;2023-10-09T15:08:54;7.72;;;4.45;;
73593;SDS011;64760;53.404;23.498;2023-10-09T15:11:22;17.65;;;7.70;;
73593;SDS011;64760;53.404;23.498;2023-10-09T15:13:52;15.82;;;7.25;;
73593;SDS011;64760;53.404;23.498;2023-10-09T15:16:25;13.13;;;6.38;;
73593;SDS011;64760;53.404;23.498;2023-10-09T15:18:56;10.75;;;5.03;;
73593;SDS011;64760;53.404;23.498;2023-10-09T15:21:32;23.75;;;8.23;;
73593;SDS011;64760;53.404;23.498;2023-10-09T15:24:15;12.95;;;5.55;;
73593;SDS011;64760;53.404;23.498;2023-10-09T15:26:45;18.88;;;6.82;;
73593;SDS011;64760;53.404;23.498;2023-10-09T15:29:18;13.13;;;4.50;;
73593;SDS011;64760;53.404;23.498;2023-10-09T15:31:49;13.95;;;4.75;;
73593;SDS011;64760;53.404;23.498;2023-10-09T15:34:16;11.32;;;4.38;;
73593;SDS011;64760;53.404;23.498;2023-10-09T15:36:45;9.25;;;4.55;;
73593;SDS011;64760;53.404;23.498;2023-10-09T15:39:13;9.98;;;4.43;;
73593;SDS011;64760;53.404;23.498;2023-10-09T15:41:40;12.00;;;5.55;;
73593;SDS011;64760;53.404;23.498;2023-10-09T15:44:06;6.35;;;3.55;;
73593;SDS011;64760;53.404;23.498;2023-10-09T15:46:32;7.25;;;2.70;;
73593;SDS011;64760;53.404;23.498;2023-10-09T15:49:02;7.82;;;3.65;;
73593;SDS011;64760;53.404;23.498;2023-10-09T15:51:29;9.52;;;4.07;;
73593;SDS011;64760;53.404;23.498;2023-10-09T15:53:56;41.08;;;13.30;;
73593;SDS011;64760;53.404;23.498;2023-10-09T15:56:23;28.08;;;9.48;;
73593;SDS011;64760;53.404;23.498;2023-10-09T15:58:50;18.42;;;6.63;;
73593;SDS011;64760;53.404;23.498;2023-10-09T16:01:20;24.85;;;10.85;;
73593;SDS011;64760;53.404;23.498;2023-10-09T16:03:46;39.10;;;13.90;;
73593;SDS011;64760;53.404;23.498;2023-10-09T16:06:14;46.05;;;19.20;;
73593;SDS011;64760;53.404;23.498;2023-10-09T16:08:42;31.05;;;15.45;;